createdAt,value
2019-04-26T00:00:56.159Z,95902.05
2019-04-26T00:02:12.318Z,95907.44
2019-04-26T00:03:24.523Z,95909.53
2019-04-26T00:04:32.104Z,95905.73
2019-04-26T00:05:39.451Z,95907.37
2019-04-26T00:06:48.596Z,95906.71
2019-04-26T00:07:55.896Z,95901.64
2019-04-26T00:09:19.464Z,95897.88
2019-04-26T00:10:34.243Z,95896.57
2019-04-26T00:11:59.656Z,95894.94
2019-04-26T00:13:14.666Z,95893.45
2019-04-26T00:14:47.410Z,95894.84
2019-04-26T00:16:04.557Z,95896.30
2019-04-26T00:17:15.504Z,95891.52
2019-04-26T00:18:23.071Z,95902.04
2019-04-26T00:19:30.493Z,95906.11
2019-04-26T00:20:38.016Z,95913.41
2019-04-26T00:21:45.392Z,95912.44
2019-04-26T00:22:53.144Z,95923.84
2019-04-26T00:24:00.338Z,95917.61
2019-04-26T00:25:08.363Z,95920.03
2019-04-26T00:26:37.608Z,95912.69
2019-04-26T00:27:44.825Z,95912.02
2019-04-26T00:28:52.149Z,95912.89
2019-04-26T00:29:59.439Z,95912.22
2019-04-26T00:31:06.720Z,95908.45
2019-04-26T00:32:14.870Z,95913.52
2019-04-26T00:33:22.646Z,95918.10
2019-04-26T00:34:30.948Z,95914.53
2019-04-26T00:35:47.473Z,95912.41
2019-04-26T00:36:47.109Z,95914.53
2019-04-26T00:37:54.336Z,95913.56
2019-04-26T00:39:01.577Z,95909.98
2019-04-26T00:40:11.838Z,95910.48
2019-04-26T00:41:20.626Z,95916.08
2019-04-26T00:42:28.865Z,95909.26
2019-04-26T00:43:36.690Z,95912.99
2019-04-26T00:44:44.711Z,95915.16
2019-04-26T00:45:54.622Z,95908.97
2019-04-26T00:47:05.342Z,95912.58
2019-04-26T00:48:16.804Z,95912.28
2019-04-26T00:49:24.684Z,95913.75
2019-04-26T00:50:45.772Z,95906.73
2019-04-26T00:51:53.781Z,95903.64
2019-04-26T00:53:04.051Z,95897.61
2019-04-26T00:54:12.055Z,95906.25
2019-04-26T00:55:21.786Z,95907.08
2019-04-26T00:56:30.107Z,95909.20
2019-04-26T00:57:38.115Z,95908.71
2019-04-26T00:58:45.938Z,95907.27
2019-04-26T00:59:53.780Z,95904.98
2019-04-26T01:01:01.800Z,95903.87
2019-04-26T01:02:18.633Z,95905.39
2019-04-26T01:03:25.871Z,95906.03
2019-04-26T01:04:33.062Z,95902.11
2019-04-26T01:05:40.939Z,95911.58
2019-04-26T01:06:49.899Z,95910.61
2019-04-26T01:07:57.499Z,95907.18
2019-04-26T01:09:06.991Z,95905.69
2019-04-26T01:10:16.640Z,95900.28
2019-04-26T01:11:25.958Z,95892.61
2019-04-26T01:12:33.635Z,95897.16
2019-04-26T01:13:40.859Z,95891.61
2019-04-26T01:14:48.086Z,95893.39
2019-04-26T01:15:55.282Z,95893.39
2019-04-26T01:17:02.528Z,95898.13
2019-04-26T01:18:09.731Z,95900.73
2019-04-26T01:19:18.776Z,95902.86
2019-04-26T01:20:30.514Z,95921.61
2019-04-26T01:21:46.056Z,95918.67
2019-04-26T01:22:57.675Z,95920.60
2019-04-26T01:24:07.478Z,95914.41
2019-04-26T01:26:14.941Z,95911.13
2019-04-26T01:27:27.684Z,95911.62
2019-04-26T01:28:54.429Z,95919.17
2019-04-26T01:30:07.985Z,95915.41
2019-04-26T01:31:18.507Z,95914.88
2019-04-26T01:32:28.263Z,95910.63
2019-04-26T01:33:38.438Z,95905.75
2019-04-26T01:34:49.550Z,95902.17
2019-04-26T01:35:57.165Z,95907.39
2019-04-26T01:37:05.637Z,95913.09
2019-04-26T01:38:16.960Z,95920.77
2019-04-26T01:39:24.442Z,95929.08
2019-04-26T01:40:33.286Z,95931.34
2019-04-26T01:41:45.731Z,95931.83
2019-04-26T01:43:04.300Z,95937.53
2019-04-26T01:44:22.663Z,95938.98
2019-04-26T01:45:44.735Z,95933.77
2019-04-26T01:46:51.990Z,95931.48
2019-04-26T01:48:05.714Z,95933.27
2019-04-26T01:49:16.327Z,95932.78
2019-04-26T01:50:28.143Z,95935.05
2019-04-26T01:51:53.332Z,95929.16
2019-04-26T01:53:02.146Z,95929.45
2019-04-26T01:54:13.856Z,95927.95
2019-04-26T01:55:22.959Z,95932.48
2019-04-26T01:56:36.212Z,95933.75
2019-04-26T01:57:44.340Z,95941.86
2019-04-26T01:58:52.215Z,95945.61
2019-04-26T02:00:06.563Z,95948.50
2019-04-26T02:01:22.716Z,95946.52
2019-04-26T02:02:55.608Z,95945.52
2019-04-26T02:04:02.847Z,95940.28
2019-04-26T02:05:15.550Z,95938.25
2019-04-26T02:06:28.804Z,95939.07
2019-04-26T02:07:39.542Z,95935.16
2019-04-26T02:08:46.967Z,95938.59
2019-04-26T02:09:54.432Z,95929.13
2019-04-26T02:11:01.778Z,95927.34
2019-04-26T02:12:09.390Z,95914.80
2019-04-26T02:13:17.140Z,95921.17
2019-04-26T02:14:25.287Z,95924.11
2019-04-26T02:15:34.968Z,95919.38
2019-04-26T02:16:42.623Z,95914.02
2019-04-26T02:17:53.441Z,95911.91
2019-04-26T02:19:00.800Z,95906.69
2019-04-26T02:20:08.985Z,95905.05
2019-04-26T02:21:45.079Z,95898.05
2019-04-26T02:23:02.390Z,95902.30
2019-04-26T02:24:17.942Z,95896.50
2019-04-26T02:25:25.969Z,95896.65
2019-04-26T02:26:34.839Z,95897.94
2019-04-26T02:27:44.654Z,95896.27
2019-04-26T02:28:52.344Z,95902.44
2019-04-26T02:30:01.573Z,95909.58
2019-04-26T02:31:08.901Z,95911.02
2019-04-26T02:32:18.193Z,95905.63
2019-04-26T02:33:27.447Z,95903.00
2019-04-26T02:34:37.999Z,95908.63
2019-04-26T02:35:46.245Z,95898.16
2019-04-26T02:36:59.134Z,95896.16
2019-04-26T02:38:06.593Z,95899.67
2019-04-26T02:39:21.019Z,95899.59
2019-04-26T02:40:30.099Z,95903.11
2019-04-26T02:41:37.979Z,95906.30
2019-04-26T02:42:46.386Z,95904.75
2019-04-26T02:43:58.009Z,95904.38
2019-04-26T02:46:19.441Z,95911.44
2019-04-26T02:47:57.719Z,95908.13
2019-04-26T02:49:37.065Z,95912.44
2019-04-26T02:50:52.120Z,95913.16
2019-04-26T02:52:53.580Z,95916.35
2019-04-26T02:54:45.193Z,95915.59
2019-04-26T02:56:35.121Z,95912.04
2019-04-26T02:57:53.847Z,95919.45
2019-04-26T02:59:43.054Z,95920.34
2019-04-26T03:00:52.469Z,95915.67
2019-04-26T03:02:04.732Z,95918.02
2019-04-26T03:03:14.277Z,95916.37
2019-04-26T03:04:24.004Z,95913.91
2019-04-26T03:05:36.278Z,95910.17
2019-04-26T03:07:02.434Z,95914.86
2019-04-26T03:08:04.196Z,95912.55
2019-04-26T03:09:14.005Z,95912.55
2019-04-26T03:10:31.811Z,95913.38
2019-04-26T03:11:43.502Z,95914.33
2019-04-26T03:12:55.197Z,95920.27
2019-04-26T03:14:24.495Z,95917.10
2019-04-26T03:15:58.090Z,95911.73
2019-04-26T03:17:18.071Z,95916.74
2019-04-26T03:18:43.042Z,95920.84
2019-04-26T03:20:00.466Z,95915.65
2019-04-26T03:21:17.635Z,95920.49
2019-04-26T03:22:46.864Z,95924.39
2019-04-26T03:24:06.932Z,95923.91
2019-04-26T03:25:38.803Z,95922.87
2019-04-26T03:27:17.898Z,95924.30
2019-04-26T03:29:03.078Z,95925.19
2019-04-26T03:30:48.660Z,95936.68
2019-04-26T03:32:50.467Z,95936.75
2019-04-26T03:34:12.545Z,95939.25
2019-04-26T03:36:00.427Z,95933.20
2019-04-26T03:37:53.019Z,95935.23
2019-04-26T03:39:30.668Z,95930.07
2019-04-26T03:40:59.573Z,95933.42
2019-04-26T03:43:11.580Z,95933.07
2019-04-26T03:44:31.271Z,95930.83
2019-04-26T03:46:24.268Z,95933.80
2019-04-26T03:48:09.841Z,95931.08
2019-04-26T03:50:19.166Z,95926.74
2019-04-26T03:51:56.961Z,95930.43
2019-04-26T03:53:47.262Z,95937.94
2019-04-26T03:54:59.436Z,95942.00
2019-04-26T03:57:14.797Z,95946.85
2019-04-26T03:58:36.628Z,95949.32
2019-04-26T04:00:11.862Z,95946.32
2019-04-26T04:01:20.585Z,95952.33
2019-04-26T04:02:58.899Z,95944.55
2019-04-26T04:04:26.676Z,95943.80
2019-04-26T04:05:46.037Z,95941.56
2019-04-26T04:07:03.784Z,95949.14
2019-04-26T04:08:09.797Z,95948.80
2019-04-26T04:09:18.093Z,95950.91
2019-04-26T04:10:31.654Z,95955.97
2019-04-26T04:12:10.289Z,95956.64
2019-04-26T04:13:59.580Z,95950.52
2019-04-26T04:15:17.165Z,95957.11
2019-04-26T04:16:50.501Z,95966.70
2019-04-26T04:18:09.204Z,95958.58
2019-04-26T04:20:07.030Z,95958.12
2019-04-26T04:21:48.362Z,95963.30
2019-04-26T04:23:09.229Z,95975.70
2019-04-26T04:24:30.873Z,95984.07
2019-04-26T04:25:45.873Z,95983.95
2019-04-26T04:27:21.358Z,95980.61
2019-04-26T04:29:56.091Z,95972.59
2019-04-26T04:34:03.791Z,95983.00
2019-04-26T04:35:14.003Z,95988.23
2019-04-26T04:36:42.342Z,95985.30
2019-04-26T04:38:09.099Z,95991.77
2019-04-26T04:39:46.383Z,95993.18
2019-04-26T04:41:13.454Z,96000.80
2019-04-26T04:42:57.080Z,96004.32
2019-04-26T04:44:39.459Z,96003.69
2019-04-26T04:46:14.312Z,96000.63
2019-04-26T04:47:46.066Z,95999.69
2019-04-26T04:49:35.309Z,96004.27
2019-04-26T04:50:52.523Z,95999.80
2019-04-26T04:52:31.603Z,96001.32
2019-04-26T04:54:13.321Z,96010.00
2019-04-26T04:55:52.983Z,96010.93
2019-04-26T04:57:39.587Z,96010.58
2019-04-26T04:58:54.315Z,96011.77
2019-04-26T05:00:15.461Z,96020.77
2019-04-26T05:02:35.951Z,96015.11
2019-04-26T05:04:00.904Z,96020.52
2019-04-26T05:06:07.532Z,96015.58
2019-04-26T05:08:07.103Z,96029.83
2019-04-26T05:09:29.922Z,96024.66
2019-04-26T05:11:02.622Z,96027.98
2019-04-26T05:12:44.469Z,96031.41
2019-04-26T05:14:10.303Z,96031.41
2019-04-26T05:16:14.698Z,96026.94
2019-04-26T05:18:07.446Z,96031.64
2019-04-26T05:19:57.146Z,96039.66
2019-04-26T05:21:42.372Z,96032.35
2019-04-26T05:23:44.627Z,96024.46
2019-04-26T05:26:18.823Z,96027.17
2019-04-26T05:28:08.207Z,96026.30
2019-04-26T05:30:17.679Z,96018.92
2019-04-26T05:31:45.898Z,96017.75
2019-04-26T05:34:05.536Z,96010.20
2019-04-26T05:35:41.716Z,96012.41
2019-04-26T05:37:55.225Z,96013.23
2019-04-26T05:39:31.734Z,96011.58
2019-04-26T05:41:36.690Z,95998.86
2019-04-26T05:43:37.684Z,96009.81
2019-04-26T05:45:27.773Z,96010.68
2019-04-26T05:47:19.016Z,96024.70
2019-04-26T05:49:28.420Z,96023.17
2019-04-26T05:52:04.981Z,96018.70
2019-04-26T05:54:39.250Z,96020.47
2019-04-26T05:56:39.449Z,96028.15
2019-04-26T05:58:46.640Z,96025.29
2019-04-26T06:00:50.573Z,96026.34
2019-04-26T06:02:59.010Z,96037.89
2019-04-26T06:04:38.629Z,96042.95
2019-04-26T06:06:35.034Z,96046.48
2019-04-26T06:08:33.791Z,96041.85
2019-04-26T06:10:28.499Z,96048.92
2019-04-26T06:11:48.658Z,96047.54
2019-04-26T06:14:00.710Z,96048.83
2019-04-26T06:15:39.322Z,96048.21
2019-04-26T06:17:53.503Z,96045.37
2019-04-26T06:19:22.648Z,96047.46
2019-04-26T06:21:04.861Z,96065.59
2019-04-26T06:22:41.720Z,96056.05
2019-04-26T06:24:22.342Z,96056.83
2019-04-26T06:26:30.744Z,96065.31
2019-04-26T06:28:04.418Z,96067.19
2019-04-26T06:29:20.271Z,96061.02
2019-04-26T06:31:01.808Z,96070.58
2019-04-26T06:32:25.642Z,96073.48
2019-04-26T06:33:43.796Z,96071.11
2019-04-26T06:35:20.008Z,96082.06
2019-04-26T06:36:36.932Z,96082.97
2019-04-26T06:38:47.714Z,96091.09
2019-04-26T06:40:12.921Z,96089.56
2019-04-26T06:42:05.151Z,96088.98
2019-04-26T06:43:26.496Z,96096.04
2019-04-26T06:45:45.212Z,96082.84
2019-04-26T06:47:08.233Z,96086.02
2019-04-26T06:48:35.142Z,96091.92
2019-04-26T06:50:19.395Z,96096.39
2019-04-26T06:51:36.596Z,96094.38
2019-04-26T06:53:15.511Z,96102.04
2019-04-26T06:54:37.211Z,96102.59
2019-04-26T06:56:09.355Z,96102.47
2019-04-26T06:58:05.504Z,96115.19
2019-04-26T06:59:51.931Z,96117.31
2019-04-26T07:01:19.265Z,96107.41
2019-04-26T07:02:39.133Z,96113.56
2019-04-26T07:04:24.941Z,96110.14
2019-04-26T07:05:38.007Z,96117.33
2019-04-26T07:07:04.608Z,96116.91
2019-04-26T07:08:39.642Z,96114.86
2019-04-26T07:10:30.181Z,96126.41
2019-04-26T07:12:34.670Z,96130.42
2019-04-26T07:14:45.030Z,96116.20
2019-04-26T07:16:29.790Z,96106.06
2019-04-26T07:18:22.270Z,96116.48
2019-04-26T07:20:33.463Z,96115.91
2019-04-26T07:22:35.511Z,96122.39
2019-04-26T07:25:09.100Z,96121.09
2019-04-26T07:26:54.721Z,96117.55
2019-04-26T07:28:22.441Z,96108.47
2019-04-26T07:30:07.594Z,96112.59
2019-04-26T07:31:48.551Z,96107.48
2019-04-26T07:33:45.422Z,96110.19
2019-04-26T07:35:31.459Z,96116.30
2019-04-26T07:37:38.987Z,96124.64
2019-04-26T07:39:35.177Z,96119.91
2019-04-26T07:41:34.952Z,96112.17
2019-04-26T07:43:29.660Z,96112.63
2019-04-26T07:45:17.393Z,96128.98
2019-04-26T07:47:24.574Z,96132.15
2019-04-26T07:49:19.066Z,96127.06
2019-04-26T07:51:19.326Z,96133.45
2019-04-26T07:53:04.605Z,96134.29
2019-04-26T07:55:04.978Z,96140.23
2019-04-26T07:57:04.589Z,96140.23
2019-04-26T07:59:30.004Z,96137.34
2019-04-26T08:00:52.329Z,96143.84
2019-04-26T08:02:40.909Z,96135.61
2019-04-26T08:04:03.788Z,96138.19
2019-04-26T08:05:26.005Z,96150.56
2019-04-26T08:06:52.209Z,96152.77
2019-04-26T08:08:06.902Z,96152.75
2019-04-26T08:09:26.536Z,96153.68
2019-04-26T08:10:28.024Z,96148.91
2019-04-26T08:11:44.700Z,96148.67
2019-04-26T08:13:06.087Z,96157.03
2019-04-26T08:14:39.446Z,96161.47
2019-04-26T08:16:13.209Z,96167.84
2019-04-26T08:17:55.932Z,96173.98
2019-04-26T08:19:08.551Z,96166.06
2019-04-26T08:20:34.658Z,96177.39
2019-04-26T08:21:48.112Z,96176.92
2019-04-26T08:23:08.987Z,96175.27
2019-04-26T08:24:21.574Z,96163.47
2019-04-26T08:25:33.895Z,96171.14
2019-04-26T08:26:44.963Z,96164.52
2019-04-26T08:27:55.623Z,96169.94
2019-04-26T08:29:07.037Z,96170.17
2019-04-26T08:30:19.073Z,96175.55
2019-04-26T08:31:29.873Z,96178.85
2019-04-26T08:32:47.256Z,96186.87
2019-04-26T08:34:02.061Z,96183.33
2019-04-26T08:35:23.374Z,96172.47
2019-04-26T08:36:38.550Z,96188.64
2019-04-26T08:37:54.269Z,96184.88
2019-04-26T08:39:04.645Z,96203.87
2019-04-26T08:40:23.092Z,96193.95
2019-04-26T08:41:26.069Z,96192.06
2019-04-26T08:42:43.363Z,96197.48
2019-04-26T08:44:07.207Z,96197.48
2019-04-26T08:45:25.912Z,96202.55
2019-04-26T08:46:47.438Z,96208.34
2019-04-26T08:48:12.680Z,96212.47
2019-04-26T08:49:44.214Z,96203.97
2019-04-26T08:50:52.231Z,96215.33
2019-04-26T08:52:13.924Z,96211.60
2019-04-26T08:53:14.274Z,96205.11
2019-04-26T08:54:26.465Z,96210.66
2019-04-26T08:55:37.022Z,96202.74
2019-04-26T08:56:49.185Z,96212.53
2019-04-26T08:58:01.495Z,96209.46
2019-04-26T08:59:20.137Z,96215.80
2019-04-26T09:00:41.257Z,96217.92
2019-04-26T09:01:58.475Z,96212.25
2019-04-26T09:03:18.923Z,96212.53
2019-04-26T09:04:34.292Z,96210.76
2019-04-26T09:06:07.928Z,96218.32
2019-04-26T09:07:22.302Z,96213.13
2019-04-26T09:08:39.358Z,96223.64
2019-04-26T09:09:57.064Z,96220.92
2019-04-26T09:11:02.972Z,96230.35
2019-04-26T09:12:22.830Z,96229.41
2019-04-26T09:13:30.269Z,96226.34
2019-04-26T09:14:42.265Z,96228.46
2019-04-26T09:16:18.343Z,96233.02
2019-04-26T09:17:27.827Z,96238.09
2019-04-26T09:18:43.212Z,96237.27
2019-04-26T09:19:43.622Z,96239.62
2019-04-26T09:20:50.844Z,96240.80
2019-04-26T09:22:12.792Z,96234.19
2019-04-26T09:23:39.533Z,96245.95
2019-04-26T09:24:48.139Z,96248.06
2019-04-26T09:25:59.414Z,96248.55
2019-04-26T09:27:11.683Z,96250.66
2019-04-26T09:28:28.793Z,96249.84
2019-04-26T09:29:54.896Z,96247.12
2019-04-26T09:31:21.161Z,96256.21
2019-04-26T09:32:47.330Z,96250.55
2019-04-26T09:33:59.236Z,96256.02
2019-04-26T09:35:06.918Z,96251.64
2019-04-26T09:36:14.245Z,96255.73
2019-04-26T09:37:22.309Z,96247.82
2019-04-26T09:38:29.541Z,96247.23
2019-04-26T09:39:36.762Z,96259.27
2019-04-26T09:40:45.458Z,96257.84
2019-04-26T09:41:54.443Z,96254.65
2019-04-26T09:43:10.509Z,96250.16
2019-04-26T09:44:33.063Z,96253.90
2019-04-26T09:45:48.152Z,96251.30
2019-04-26T09:47:19.589Z,96247.05
2019-04-26T09:48:37.316Z,96247.88
2019-04-26T09:50:03.661Z,96259.49
2019-04-26T09:51:10.972Z,96259.97
2019-04-26T09:52:23.849Z,96270.83
2019-04-26T09:53:31.138Z,96272.83
2019-04-26T09:54:38.455Z,96270.70
2019-04-26T09:55:45.680Z,96265.52
2019-04-26T09:56:52.925Z,96266.81
2019-04-26T09:58:00.145Z,96267.28
2019-04-26T09:59:09.161Z,96272.48
2019-04-26T10:00:24.201Z,96273.90
2019-04-26T10:01:32.702Z,96271.90
2019-04-26T10:02:40.278Z,96277.34
2019-04-26T10:03:47.501Z,96277.69
2019-04-26T10:04:54.803Z,96276.86
2019-04-26T10:06:02.135Z,96274.27
2019-04-26T10:07:10.185Z,96283.36
2019-04-26T10:08:18.559Z,96287.84
2019-04-26T10:09:26.557Z,96290.09
2019-04-26T10:10:35.235Z,96288.13
2019-04-26T10:11:49.561Z,96306.19
2019-04-26T10:13:15.088Z,96293.09
2019-04-26T10:14:46.398Z,96291.72
2019-04-26T10:16:02.491Z,96287.48
2019-04-26T10:17:21.143Z,96291.89
2019-04-26T10:18:28.551Z,96293.30
2019-04-26T10:19:45.888Z,96294.02
2019-04-26T10:20:53.147Z,96291.42
2019-04-26T10:22:00.354Z,96286.34
2019-04-26T10:23:07.910Z,96284.93
2019-04-26T10:24:16.551Z,96298.61
2019-04-26T10:25:24.063Z,96295.90
2019-04-26T10:26:31.298Z,96298.84
2019-04-26T10:27:40.775Z,96296.25
2019-04-26T10:28:50.605Z,96288.81
2019-04-26T10:30:07.815Z,96291.89
2019-04-26T10:31:06.323Z,96290.70
2019-04-26T10:32:13.783Z,96292.83
2019-04-26T10:33:21.002Z,96291.66
2019-04-26T10:34:28.394Z,96292.95
2019-04-26T10:35:35.678Z,96289.53
2019-04-26T10:36:44.133Z,96291.18
2019-04-26T10:37:52.678Z,96293.42
2019-04-26T10:39:00.135Z,96290.83
2019-04-26T10:40:09.337Z,96294.48
2019-04-26T10:41:16.956Z,96303.57
2019-04-26T10:42:24.241Z,96292.02
2019-04-26T10:43:31.450Z,96296.37
2019-04-26T10:44:40.172Z,96291.78
2019-04-26T10:45:53.590Z,96294.02
2019-04-26T10:46:59.910Z,96294.17
2019-04-26T10:48:09.729Z,96298.89
2019-04-26T10:49:45.327Z,96293.34
2019-04-26T10:50:52.540Z,96295.32
2019-04-26T10:51:59.770Z,96299.13
2019-04-26T10:53:17.762Z,96306.20
2019-04-26T10:54:24.976Z,96297.48
2019-04-26T10:55:51.527Z,96287.37
2019-04-26T10:57:12.265Z,96292.20
2019-04-26T10:58:32.047Z,96284.66
2019-04-26T10:59:50.889Z,96281.16
2019-04-26T11:00:59.164Z,96287.40
2019-04-26T11:02:10.772Z,96284.22
2019-04-26T11:03:18.024Z,96284.57
2019-04-26T11:04:25.890Z,96289.64
2019-04-26T11:05:33.352Z,96293.88
2019-04-26T11:06:40.607Z,96300.73
2019-04-26T11:07:47.920Z,96297.30
2019-04-26T11:08:55.131Z,96291.29
2019-04-26T11:10:03.023Z,96292.94
2019-04-26T11:11:11.053Z,96296.95
2019-04-26T11:12:19.557Z,96290.47
2019-04-26T11:13:26.750Z,96288.94
2019-04-26T11:14:33.961Z,96280.80
2019-04-26T11:15:41.174Z,96289.41
2019-04-26T11:16:48.381Z,96285.86
2019-04-26T11:17:56.120Z,96285.75
2019-04-26T11:19:05.012Z,96289.17
2019-04-26T11:20:12.540Z,96292.23
2019-04-26T11:21:21.012Z,96290.94
2019-04-26T11:22:33.146Z,96292.35
2019-04-26T11:23:41.207Z,96291.41
2019-04-26T11:24:50.108Z,96287.31
2019-04-26T11:25:58.053Z,96290.13
2019-04-26T11:27:09.690Z,96284.23
2019-04-26T11:28:21.068Z,96285.06
2019-04-26T11:29:28.799Z,96285.53
2019-04-26T11:30:35.336Z,96291.91
2019-04-26T11:31:42.533Z,96294.02
2019-04-26T11:32:49.742Z,96292.26
2019-04-26T11:34:05.182Z,96292.61
2019-04-26T11:35:06.062Z,96304.17
2019-04-26T11:36:13.324Z,96298.63
2019-04-26T11:37:20.572Z,96301.22
2019-04-26T11:38:31.169Z,96308.64
2019-04-26T11:39:40.583Z,96307.81
2019-04-26T11:40:49.842Z,96312.18
2019-04-26T11:41:57.095Z,96309.34
2019-04-26T11:43:05.058Z,96315.48
2019-04-26T11:44:12.285Z,96318.07
2019-04-26T11:45:19.657Z,96324.55
2019-04-26T11:46:29.251Z,96327.14
2019-04-26T11:47:37.179Z,96325.38
2019-04-26T11:48:44.725Z,96324.55
2019-04-26T11:49:52.251Z,96326.79
2019-04-26T11:50:59.522Z,96325.02
2019-04-26T11:52:07.878Z,96329.27
2019-04-26T11:53:15.097Z,96335.28
2019-04-26T11:54:22.337Z,96343.89
2019-04-26T11:55:30.138Z,96345.66
2019-04-26T11:56:38.875Z,96349.90
2019-04-26T11:57:47.640Z,96347.31
2019-04-26T11:58:56.846Z,96344.36
2019-04-26T12:00:05.483Z,96351.20
2019-04-26T12:01:15.791Z,96345.66
2019-04-26T12:02:23.057Z,96355.56
2019-04-26T12:03:30.304Z,96359.92
2019-04-26T12:05:02.435Z,96351.31
2019-04-26T12:06:31.773Z,96348.01
2019-04-26T12:07:43.800Z,96347.64
2019-04-26T12:08:56.959Z,96354.11
2019-04-26T12:10:09.234Z,96351.52
2019-04-26T12:11:18.550Z,96354.69
2019-04-26T12:12:23.808Z,96353.87
2019-04-26T12:13:31.144Z,96354.48
2019-04-26T12:14:38.406Z,96344.23
2019-04-26T12:15:45.626Z,96343.87
2019-04-26T12:16:59.164Z,96356.36
2019-04-26T12:18:05.695Z,96351.53
2019-04-26T12:19:14.282Z,96358.84
2019-04-26T12:20:22.450Z,96352.83
2019-04-26T12:21:30.503Z,96356.00
2019-04-26T12:22:39.402Z,96354.82
2019-04-26T12:23:46.825Z,96364.13
2019-04-26T12:24:54.050Z,96367.77
2019-04-26T12:26:01.275Z,96372.59
2019-04-26T12:27:10.381Z,96381.20
2019-04-26T12:28:17.452Z,96385.08
2019-04-26T12:29:24.984Z,96389.44
2019-04-26T12:30:32.240Z,96392.86
2019-04-26T12:31:39.645Z,96391.56
2019-04-26T12:32:46.917Z,96395.92
2019-04-26T12:33:54.201Z,96399.70
2019-04-26T12:35:01.441Z,96397.11
2019-04-26T12:36:13.427Z,96400.64
2019-04-26T12:37:21.099Z,96393.83
2019-04-26T12:38:28.644Z,96400.06
2019-04-26T12:39:38.315Z,96395.94
2019-04-26T12:40:47.603Z,96397.81
2019-04-26T12:41:54.937Z,96396.63
2019-04-26T12:43:02.148Z,96391.55
2019-04-26T12:44:09.933Z,96390.26
2019-04-26T12:45:54.649Z,96387.20
2019-04-26T12:47:08.029Z,96391.80
2019-04-26T12:48:17.471Z,96382.13
2019-04-26T12:49:25.412Z,96385.66
2019-04-26T12:50:36.426Z,96380.13
2019-04-26T12:51:42.780Z,96381.77
2019-04-26T12:52:51.440Z,96380.48
2019-04-26T12:53:59.534Z,96375.30
2019-04-26T12:55:06.950Z,96383.07
2019-04-26T12:56:14.339Z,96373.64
2019-04-26T12:57:21.570Z,96380.59
2019-04-26T12:58:28.808Z,96382.00
2019-04-26T12:59:43.891Z,96385.88
2019-04-26T13:00:53.930Z,96391.06
2019-04-26T13:02:04.984Z,96386.35
2019-04-26T13:03:04.344Z,96387.29
2019-04-26T13:04:11.539Z,96391.53
2019-04-26T13:05:20.280Z,96396.14
2019-04-26T13:06:32.004Z,96398.73
2019-04-26T13:07:39.075Z,96401.57
2019-04-26T13:08:51.405Z,96398.26
2019-04-26T13:10:35.452Z,96395.31
2019-04-26T13:12:00.594Z,96394.48
2019-04-26T13:13:21.863Z,96393.88
2019-04-26T13:14:56.980Z,96388.78
2019-04-26T13:16:26.526Z,96392.56
2019-04-26T13:17:47.235Z,96396.42
2019-04-26T13:18:54.479Z,96401.70
2019-04-26T13:20:01.762Z,96408.18
2019-04-26T13:21:10.383Z,96404.08
2019-04-26T13:22:17.624Z,96409.04
2019-04-26T13:23:25.390Z,96404.94
2019-04-26T13:24:35.525Z,96402.56
2019-04-26T13:25:42.784Z,96405.88
2019-04-26T13:26:50.215Z,96406.23
2019-04-26T13:27:57.611Z,96404.94
2019-04-26T13:29:04.927Z,96412.13
2019-04-26T13:30:13.818Z,96401.30
2019-04-26T13:31:21.062Z,96407.20
2019-04-26T13:32:28.273Z,96416.16
2019-04-26T13:33:35.545Z,96420.98
2019-04-26T13:34:42.783Z,96421.91
2019-04-26T13:36:02.758Z,96430.05
2019-04-26T13:37:03.004Z,96439.12
2019-04-26T13:38:11.407Z,96446.06
2019-04-26T13:39:22.365Z,96441.59
2019-04-26T13:40:29.511Z,96440.52
2019-04-26T13:41:38.714Z,96433.93
2019-04-26T13:42:47.382Z,96437.13
2019-04-26T13:43:57.171Z,96443.50
2019-04-26T13:45:15.767Z,96453.29
2019-04-26T13:46:43.441Z,96454.94
2019-04-26T13:48:12.530Z,96456.70
2019-04-26T13:49:32.279Z,96452.10
2019-04-26T13:50:50.310Z,96450.56
2019-04-26T13:51:57.790Z,96448.44
2019-04-26T13:53:05.028Z,96447.25
2019-04-26T13:54:12.274Z,96443.83
2019-04-26T13:55:19.467Z,96447.25
2019-04-26T13:56:26.797Z,96453.26
2019-04-26T13:57:34.009Z,96460.56
2019-04-26T13:58:41.249Z,96458.08
2019-04-26T13:59:48.572Z,96457.61
2019-04-26T14:00:56.115Z,96463.63
2019-04-26T14:02:11.500Z,96463.98
2019-04-26T14:03:12.905Z,96465.28
2019-04-26T14:04:21.372Z,96468.80
2019-04-26T14:05:28.612Z,96470.45
2019-04-26T14:06:35.817Z,96473.41
2019-04-26T14:07:43.035Z,96476.00
2019-04-26T14:08:53.672Z,96483.31
2019-04-26T14:09:59.293Z,96477.66
2019-04-26T14:11:07.175Z,96473.41
2019-04-26T14:12:18.544Z,96477.77
2019-04-26T14:13:25.050Z,96476.47
2019-04-26T14:14:34.222Z,96479.06
2019-04-26T14:15:43.643Z,96479.06
2019-04-26T14:16:52.066Z,96482.02
2019-04-26T14:18:04.248Z,96485.33
2019-04-26T14:19:14.793Z,96480.14
2019-04-26T14:20:19.182Z,96484.39
2019-04-26T14:21:29.309Z,96486.98
2019-04-26T14:22:42.450Z,96485.33
2019-04-26T14:24:14.804Z,96483.20
2019-04-26T14:25:26.988Z,96477.19
2019-04-26T14:26:41.744Z,96480.11
2019-04-26T14:27:51.693Z,96482.81
2019-04-26T14:28:59.888Z,96494.58
2019-04-26T14:30:09.423Z,96489.06
2019-04-26T14:31:18.197Z,96490.69
2019-04-26T14:32:25.632Z,96489.89
2019-04-26T14:33:33.396Z,96498.46
2019-04-26T14:34:41.974Z,96498.00
2019-04-26T14:35:50.615Z,96506.23
2019-04-26T14:37:06.352Z,96496.84
2019-04-26T14:38:08.162Z,96500.83
2019-04-26T14:39:19.540Z,96507.42
2019-04-26T14:40:24.410Z,96499.28
2019-04-26T14:41:31.698Z,96508.09
2019-04-26T14:42:46.006Z,96510.44
2019-04-26T14:43:48.131Z,96517.74
2019-04-26T14:44:55.373Z,96512.45
2019-04-26T14:46:02.634Z,96506.08
2019-04-26T14:47:14.715Z,96503.02
2019-04-26T14:48:20.862Z,96496.18
2019-04-26T14:49:38.463Z,96494.05
2019-04-26T14:50:36.874Z,96492.77
2019-04-26T14:51:46.981Z,96491.57
2019-04-26T14:52:53.021Z,96485.45
2019-04-26T14:54:00.295Z,96476.03
2019-04-26T14:55:07.688Z,96476.86
2019-04-26T14:56:14.985Z,96469.30
2019-04-26T14:57:29.322Z,96462.47
2019-04-26T14:58:33.598Z,96458.69
2019-04-26T14:59:57.621Z,96452.68
2019-04-26T15:01:05.478Z,96456.20
2019-04-26T15:02:25.396Z,96455.52
2019-04-26T15:03:39.766Z,96458.94
2019-04-26T15:05:12.253Z,96455.52
2019-04-26T15:06:25.884Z,96456.67
2019-04-26T15:07:35.051Z,96467.03
2019-04-26T15:08:45.240Z,96471.64
2019-04-26T15:09:52.891Z,96475.89
2019-04-26T15:11:01.333Z,96478.84
2019-04-26T15:12:14.100Z,96483.08
2019-04-26T15:13:20.857Z,96477.33
2019-04-26T15:14:27.116Z,96474.73
2019-04-26T15:15:34.747Z,96476.39
2019-04-26T15:16:44.982Z,96475.09
2019-04-26T15:17:55.059Z,96471.21
2019-04-26T15:19:00.031Z,96475.09
2019-04-26T15:20:07.944Z,96477.22
2019-04-26T15:21:16.374Z,96487.47
2019-04-26T15:22:24.429Z,96494.78
2019-04-26T15:23:32.983Z,96508.78
2019-04-26T15:24:42.076Z,96522.09
2019-04-26T15:25:49.868Z,96525.52
2019-04-26T15:27:01.945Z,96533.75
2019-04-26T15:28:11.969Z,96525.63
2019-04-26T15:29:16.359Z,96525.16
2019-04-26T15:30:23.903Z,96522.45
2019-04-26T15:31:32.992Z,96524.47
2019-04-26T15:32:40.407Z,96517.89
2019-04-26T15:33:48.891Z,96514.83
2019-04-26T15:34:58.602Z,96517.42
2019-04-26T15:36:06.468Z,96527.31